Terminal Aerodrome Forecast
Issued by NWS

Home | Current Version | Previous Version | Text Only | Print | Product List | Glossary On
Versions: 1 2 3 4 5 6 7 8 9 10 11 12 13 14
721
FTUS45 KRIW 260520
TAFWRL
TAF
KWRL 260520Z 2606/2706 VRB06KT P6SM SCT090
     FM262200 02007KT P6SM VCSH SCT070 BKN100
     FM270500 17007KT P6SM SCT100=

USA.gov is the U.S. government's official web portal to all federal, state and local government web resources and services.